Flight Track Log - Related Links

Times and Time Zones

All times are in EDT time to prevent confusion due to time zone crossing. See the AWI3989 flight status page for this flight to view local times or setup timezone preferences in your user account.


Time Position Orientation Groundspeed Altitude Reporting Facility
EDT Latitude Longitude Course Direction KTS MPH feet Rate Location/Type
Mon 10:30:03 AM 43.1833 -77.6831 348° North 179 206 3,400  Level Cleveland Center
Mon 10:31:00 AM 42.8156 -77.7217 192° South  Level FlightAware Approximate
Mon 10:31:06 AM 43.1592 -77.7603 247° West 228 262 5,100  Level Cleveland Center
Mon 10:32:00 AM 42.7157 -77.7503 192° South  Level FlightAware Approximate
Mon 10:32:08 AM 43.0903 -77.8383 220° Southwest 276 318 7,700  Level Cleveland Center
Mon 10:33:00 AM 42.6161 -77.7802 192° South  Level FlightAware Approximate
Mon 10:33:10 AM 43.0086 -77.8114 166° South 301 346 9,500  Level Cleveland Center
Mon 10:34:00 AM 42.5160 -77.8046 191° South  Level FlightAware Approximate
Mon 10:34:12 AM 42.9261 -77.7742 162° South 306 352 11,000  Level Cleveland Center
Mon 10:35:14 AM 42.8369 -77.7372 163° South 326 375 13,000 1,790 Climbing Cleveland Center
Mon 10:36:16 AM 42.7458 -77.7569 189° South 333 383 14,700 1,742 Climbing Cleveland Center
Mon 10:37:18 AM 42.6331 -77.7839 190° South 346 398 16,600 1,584 Climbing Cleveland Center
Mon 10:38:21 AM 42.5372 -77.8097 191° South 351 404 18,000 1,248 Climbing Cleveland Center
Mon 10:39:23 AM 42.4411 -77.8347 191° South 360 414 19,200 1,210 Climbing Cleveland Center
Mon 10:40:25 AM 42.3400 -77.8600 190° South 368 423 20,500 1,210 Climbing Cleveland Center
Mon 10:41:27 AM 42.2161 -77.8925 191° South 376 433 21,700 1,161 Climbing Cleveland Center
Mon 10:42:29 AM 42.1094 -77.9203 191° South 387 445 22,900 629 Climbing Cleveland Center
Mon 10:43:31 AM 42.0025 -77.9483 191° South 392 451 23,000 48 Climbing Cleveland Center
Mon 10:44:33 AM 41.8908 -77.9753 190° South 394 453 23,000  Level Cleveland Center
Mon 10:45:36 AM 41.7864 -78.0028 191° South 386 444 23,000  Level Cleveland Center
Mon 10:46:38 AM 41.6819 -78.0278 190° South 384 442 23,000  Level Cleveland Center
Mon 10:47:40 AM 41.5586 -78.0581 190° South 381 438 23,000  Level Cleveland Center
Mon 10:48:42 AM 41.4558 -78.0847 191° South 381 438 23,000  Level Cleveland Center
Mon 10:49:44 AM 41.3525 -78.1094 190° South 380 437 23,000  Level Cleveland Center
Mon 10:50:46 AM 41.2481 -78.1356 191° South 380 437 23,000  Level Cleveland Center
Mon 10:51:48 AM 41.1442 -78.1067 168° South 387 445 23,000  Level Cleveland Center
Mon 10:52:50 AM 41.0425 -78.0556 159° South 387 445 23,000 -240 Level Cleveland Center
Mon 10:53:53 AM 40.9217 -77.9928 159° South 388 447 22,500 -720 Descending Cleveland Center
Mon 10:54:55 AM 40.8500 -77.8764 129° Southeast 409 471 21,500 -726 Descending Cleveland Center
Mon 10:55:57 AM 40.7969 -77.7558 120° Southeast 386 444 21,000 -242 Descending Cleveland Center
Mon 10:56:59 AM 40.7439 -77.6397 121° Southeast 375 432 21,000 -532 Level Cleveland Center
Mon 10:58:01 AM 40.6881 -77.5175 121° Southeast 388 447 19,900 -1,258 Descending Cleveland Center
Mon 10:59:03 AM 40.6214 -77.3736 121° Southeast 389 448 18,400 -1,129 Descending Cleveland Center
Mon 10:59:42 AM 40.5894 -77.3031 121° Southeast 390 449 18,000 -240 Descending New York Center
Mon 11:00:43 AM 40.5397 -77.1808 118° Southeast 384 442 18,000  Level New York Center
Mon 11:01:44 AM 40.5025 -77.0572 112° Southeast 362 417 18,000  Level New York Center
Mon 11:02:44 AM 40.4614 -76.9306 113° Southeast 368 423 18,000  Level New York Center
Mon 11:03:43 AM 40.4219 -76.8044 112° Southeast 368 423 18,000  Level New York Center
Mon 11:04:44 AM 40.3806 -76.6756 113° Southeast 368 423 18,000 -50 Level New York Center
Mon 11:05:43 AM 40.3408 -76.5494 112° Southeast 368 423 17,900 -600 Descending New York Center
Mon 11:06:44 AM 40.3047 -76.4375 113° Southeast 368 423 16,800 -1,059 Descending New York Center
Mon 11:07:42 AM 40.2611 -76.3008 113° Southeast 368 423 15,800 -1,271 Descending New York Center
Mon 11:08:42 AM 40.2264 -76.1947 113° Southeast 362 417 14,300 -1,500 Descending New York Center
Mon 11:09:42 AM 40.1844 -76.0664 113° Southeast 351 404 12,800 -1,800 Descending New York Center
Mon 11:10:42 AM 40.1556 -75.9664 111° Southeast 333 383 10,700 -2,132 Descending New York Center
Mon 11:11:43 AM 40.1164 -75.8603 116° Southeast 323 372 8,500 -1,328 Descending New York Center
Mon 11:12:44 AM 40.0817 -75.7436 111° Southeast 316 364 8,000 -248 Descending New York Center
Mon 11:13:44 AM 40.0756 -75.6431 95° East 303 349 8,000 -154 Level New York Center
Mon 11:14:41 AM 40.0700 -75.5206 93° East 298 343 7,700 -508 Descending New York Center
Mon 11:15:42 AM 40.0656 -75.4225 93° East 298 343 7,000 -689 Descending New York Center
Mon 11:21:00 AM 39.8722 -75.2409 76° East  Level Estimated

Login

Don't have an account? Register now (free) for customized features, flight alerts, and more!